Time;durP1;ratioP1;P1;durP2;ratioP2;P2;SDS_P1;SDS_P2;PMS_P1;PMS_P2;Temp;Humidity;BMP_temperature;BMP_pressure;BME280_temperature;BME280_humidity;BME280_pressure;Samples;Min_cycle;Max_cycle;Signal;HPM_P1;HPM_P2
2023/10/17 00:02:11;;;;;;;19.30;4.90;;;;;;;;;;5012082;28;20416;-79
2023/10/17 00:04:41;;;;;;;19.70;4.55;;;;;;;;;;5011753;28;20408;-79
2023/10/17 00:07:08;;;;;;;18.90;4.80;;;;;;;;;;5011859;28;20791;-80
2023/10/17 00:09:38;;;;;;;19.85;4.68;;;;;;;;;;4992970;28;20417;-78
2023/10/17 00:12:25;;;;;;;18.65;4.32;;;;;;;;;;5007847;28;20410;-79
2023/10/17 00:17:22;;;;;;;18.48;4.13;;;;;;;;;;5010457;28;20412;-77
2023/10/17 00:19:49;;;;;;;21.10;4.45;;;;;;;;;;5011794;28;20452;-77
2023/10/17 00:22:18;;;;;;;21.27;4.38;;;;;;;;;;5009738;28;20411;-78
2023/10/17 00:24:46;;;;;;;18.10;4.22;;;;;;;;;;5010274;28;20499;-76
2023/10/17 00:27:14;;;;;;;20.65;4.85;;;;;;;;;;4994093;28;20445;-78
2023/10/17 00:29:41;;;;;;;21.83;5.20;;;;;;;;;;4996558;28;20502;-77
2023/10/17 00:32:12;;;;;;;20.95;4.35;;;;;;;;;;4993769;28;20472;-78
2023/10/17 00:34:40;;;;;;;21.05;4.60;;;;;;;;;;5004905;28;20440;-77
2023/10/17 00:37:20;;;;;;;19.13;4.45;;;;;;;;;;4992607;28;20433;-78
2023/10/17 00:39:47;;;;;;;20.00;4.40;;;;;;;;;;5011036;28;20776;-77
2023/10/17 00:42:28;;;;;;;20.15;4.53;;;;;;;;;;4994858;28;20416;-77
2023/10/17 00:44:55;;;;;;;19.50;4.30;;;;;;;;;;5008361;28;20405;-78
2023/10/17 00:47:22;;;;;;;19.90;4.70;;;;;;;;;;4992855;28;20417;-77
2023/10/17 00:49:50;;;;;;;19.27;4.28;;;;;;;;;;5011103;28;20417;-77
2023/10/17 00:52:24;;;;;;;17.85;4.20;;;;;;;;;;4992270;28;20419;-77
2023/10/17 00:54:53;;;;;;;18.85;4.78;;;;;;;;;;5010573;28;20467;-77
2023/10/17 00:57:27;;;;;;;18.63;4.07;;;;;;;;;;4994185;28;21189;-77
2023/10/17 00:59:55;;;;;;;19.70;4.10;;;;;;;;;;4992486;28;20439;-79
2023/10/17 01:02:29;;;;;;;20.52;4.95;;;;;;;;;;5009153;28;20504;-79
2023/10/17 01:04:59;;;;;;;18.77;4.43;;;;;;;;;;4992229;28;20785;-77
2023/10/17 01:07:29;;;;;;;18.17;4.00;;;;;;;;;;5011364;28;20421;-77
2023/10/17 01:10:10;;;;;;;18.30;4.40;;;;;;;;;;4992652;28;20416;-80
2023/10/17 01:16:16;;;;;;;20.83;4.40;;;;;;;;;;5010241;28;20980;-77
2023/10/17 01:18:44;;;;;;;18.42;4.13;;;;;;;;;;4992848;28;20428;-79
2023/10/17 01:21:11;;;;;;;18.40;4.10;;;;;;;;;;4990541;28;20455;-78
2023/10/17 01:23:38;;;;;;;18.90;3.85;;;;;;;;;;5009100;28;20409;-78
2023/10/17 01:26:09;;;;;;;19.50;4.90;;;;;;;;;;4992138;28;20413;-76
2023/10/17 01:28:35;;;;;;;18.33;4.13;;;;;;;;;;4991957;28;20543;-77
2023/10/17 01:31:03;;;;;;;19.45;4.38;;;;;;;;;;4991993;28;20412;-78
2023/10/17 01:33:30;;;;;;;19.63;4.35;;;;;;;;;;5010714;28;20404;-77
2023/10/17 01:35:58;;;;;;;20.55;4.53;;;;;;;;;;5008645;28;20436;-77
2023/10/17 01:38:26;;;;;;;18.55;4.65;;;;;;;;;;5008577;28;20500;-79
2023/10/17 01:40:53;;;;;;;18.95;4.65;;;;;;;;;;5009777;28;20438;-78
2023/10/17 01:43:21;;;;;;;19.02;4.72;;;;;;;;;;4992717;28;20404;-76
2023/10/17 01:45:48;;;;;;;20.27;4.38;;;;;;;;;;5009901;28;20768;-77
2023/10/17 01:48:15;;;;;;;19.63;4.28;;;;;;;;;;4991829;28;20431;-80
2023/10/17 01:50:44;;;;;;;19.00;4.30;;;;;;;;;;4990332;28;20435;-77
2023/10/17 01:53:12;;;;;;;18.92;4.20;;;;;;;;;;5008497;28;20413;-78
2023/10/17 01:55:39;;;;;;;18.60;3.90;;;;;;;;;;4983377;28;21140;-78
2023/10/17 01:58:15;;;;;;;19.58;4.28;;;;;;;;;;4989084;28;20523;-77
2023/10/17 02:00:44;;;;;;;18.83;4.40;;;;;;;;;;4994048;28;20429;-77
2023/10/17 02:03:12;;;;;;;20.50;4.75;;;;;;;;;;4993133;28;20979;-78
2023/10/17 02:05:39;;;;;;;19.73;5.05;;;;;;;;;;4990427;28;20420;-78
2023/10/17 02:08:06;;;;;;;20.02;4.80;;;;;;;;;;4999491;28;21245;-79
2023/10/17 02:10:33;;;;;;;20.13;5.20;;;;;;;;;;4992854;28;20410;-78
2023/10/17 02:13:02;;;;;;;21.42;4.78;;;;;;;;;;4993918;28;20526;-79
2023/10/17 02:15:30;;;;;;;24.80;4.95;;;;;;;;;;5009607;28;20503;-78
2023/10/17 02:18:00;;;;;;;20.40;4.45;;;;;;;;;;5008639;28;20520;-77
2023/10/17 02:22:57;;;;;;;18.80;3.83;;;;;;;;;;5010944;28;20448;-81
2023/10/17 02:25:31;;;;;;;20.67;4.80;;;;;;;;;;5008755;28;20412;-80
2023/10/17 02:27:58;;;;;;;18.08;3.90;;;;;;;;;;4998372;28;20420;-79
2023/10/17 02:30:25;;;;;;;17.75;3.65;;;;;;;;;;4995096;28;20463;-80
2023/10/17 02:32:55;;;;;;;18.23;3.92;;;;;;;;;;4992120;28;20420;-78
2023/10/17 02:35:39;;;;;;;17.52;3.90;;;;;;;;;;4993757;28;20444;-80
2023/10/17 02:38:08;;;;;;;17.15;3.45;;;;;;;;;;4994073;28;20405;-79
2023/10/17 02:40:34;;;;;;;16.90;3.30;;;;;;;;;;4993430;28;20463;-78
2023/10/17 02:43:01;;;;;;;18.00;3.70;;;;;;;;;;4990443;28;20423;-78
2023/10/17 02:45:28;;;;;;;17.90;3.70;;;;;;;;;;5008007;28;20408;-78
2023/10/17 02:47:56;;;;;;;17.90;3.70;;;;;;;;;;4990962;28;20531;-78
2023/10/17 02:52:57;;;;;;;19.10;4.15;;;;;;;;;;5009893;28;20998;-78
2023/10/17 02:55:23;;;;;;;18.60;3.90;;;;;;;;;;4990850;28;20896;-79
2023/10/17 02:57:50;;;;;;;18.80;4.60;;;;;;;;;;4991526;28;20448;-78
2023/10/17 03:00:23;;;;;;;18.27;4.20;;;;;;;;;;4991614;28;20511;-78
2023/10/17 03:02:55;;;;;;;19.25;3.78;;;;;;;;;;4991333;28;20413;-78
2023/10/17 03:05:24;;;;;;;16.98;3.30;;;;;;;;;;5008925;28;20812;-80
2023/10/17 03:07:53;;;;;;;17.73;3.70;;;;;;;;;;4997315;28;20512;-80
2023/10/17 03:10:37;;;;;;;20.38;3.90;;;;;;;;;;4995331;28;20412;-80
2023/10/17 03:13:06;;;;;;;16.98;3.55;;;;;;;;;;4994191;28;20414;-78
2023/10/17 03:15:38;;;;;;;17.60;3.80;;;;;;;;;;4993519;28;20427;-78
2023/10/17 03:18:14;;;;;;;16.92;3.50;;;;;;;;;;5012421;28;20903;-79
2023/10/17 03:20:42;;;;;;;21.55;3.40;;;;;;;;;;5012418;28;20511;-78
2023/10/17 03:23:10;;;;;;;17.42;3.50;;;;;;;;;;5013208;28;20412;-79
2023/10/17 03:25:37;;;;;;;18.27;4.07;;;;;;;;;;5010952;28;20441;-78
2023/10/17 03:28:08;;;;;;;16.98;3.10;;;;;;;;;;5008654;28;20422;-79
2023/10/17 03:30:35;;;;;;;17.40;3.15;;;;;;;;;;4979473;28;20444;-78
2023/10/17 03:33:08;;;;;;;16.20;3.00;;;;;;;;;;4988970;28;20411;-79
2023/10/17 03:35:35;;;;;;;18.38;3.03;;;;;;;;;;5010538;28;20535;-78
2023/10/17 03:38:03;;;;;;;18.20;4.00;;;;;;;;;;4995212;28;20424;-80
2023/10/17 03:40:40;;;;;;;17.08;3.30;;;;;;;;;;4992722;28;20819;-79
2023/10/17 03:43:14;;;;;;;18.45;3.60;;;;;;;;;;5001277;28;20514;-78
2023/10/17 03:45:51;;;;;;;17.90;3.03;;;;;;;;;;5008134;28;20519;-79
2023/10/17 03:48:20;;;;;;;16.83;3.20;;;;;;;;;;5006297;28;20417;-79
2023/10/17 03:53:29;;;;;;;20.85;3.60;;;;;;;;;;5012091;28;20428;-80
2023/10/17 03:56:01;;;;;;;18.20;3.20;;;;;;;;;;4994046;28;20405;-80
2023/10/17 04:00:55;;;;;;;16.80;2.80;;;;;;;;;;5011747;28;20424;-79
2023/10/17 04:03:22;;;;;;;19.50;3.55;;;;;;;;;;5012838;28;20892;-79
2023/10/17 04:05:50;;;;;;;18.98;3.38;;;;;;;;;;5002291;28;20419;-80
2023/10/17 04:08:18;;;;;;;17.20;3.30;;;;;;;;;;5011238;28;20417;-79
2023/10/17 04:10:51;;;;;;;17.58;3.17;;;;;;;;;;5012674;28;20405;-79
2023/10/17 04:13:34;;;;;;;18.60;3.80;;;;;;;;;;5014880;28;20412;-79
2023/10/17 04:16:14;;;;;;;18.58;3.58;;;;;;;;;;5000609;28;20416;-78
2023/10/17 04:18:41;;;;;;;18.55;3.53;;;;;;;;;;4993866;28;20407;-78
2023/10/17 04:23:55;;;;;;;17.27;3.30;;;;;;;;;;5009649;28;20440;-77
2023/10/17 04:26:27;;;;;;;17.00;3.50;;;;;;;;;;4994543;28;20645;-77
2023/10/17 04:28:55;;;;;;;17.67;3.40;;;;;;;;;;5011201;28;20417;-76
2023/10/17 04:31:25;;;;;;;16.58;3.33;;;;;;;;;;4993612;28;20420;-78
2023/10/17 04:33:56;;;;;;;17.00;3.13;;;;;;;;;;5011292;28;20412;-77
2023/10/17 04:36:23;;;;;;;16.58;3.30;;;;;;;;;;5010991;28;20503;-79
2023/10/17 04:39:10;;;;;;;18.40;3.70;;;;;;;;;;4992051;28;20539;-78
2023/10/17 04:41:47;;;;;;;18.50;4.00;;;;;;;;;;5007940;28;20837;-77
2023/10/17 04:44:16;;;;;;;19.48;4.10;;;;;;;;;;5010785;28;20415;-78
2023/10/17 04:47:06;;;;;;;18.20;4.20;;;;;;;;;;4989636;28;20425;-77
2023/10/17 04:49:37;;;;;;;21.08;4.50;;;;;;;;;;4994753;28;20469;-78
2023/10/17 04:52:07;;;;;;;17.55;3.60;;;;;;;;;;5010470;28;20808;-76
2023/10/17 04:57:05;;;;;;;17.20;3.50;;;;;;;;;;5010100;28;20919;-78
2023/10/17 05:07:27;;;;;;;19.10;3.90;;;;;;;;;;5010152;28;20412;-79
2023/10/17 06:19:09;;;;;;;17.48;3.38;;;;;;;;;;5009158;28;20415;-77
2023/10/17 06:21:39;;;;;;;18.80;3.80;;;;;;;;;;4990511;28;20417;-79
2023/10/17 06:24:06;;;;;;;17.00;3.50;;;;;;;;;;5010801;28;20492;-80
2023/10/17 06:34:15;;;;;;;21.48;3.40;;;;;;;;;;5011257;28;20562;-79
2023/10/17 06:36:43;;;;;;;16.92;3.40;;;;;;;;;;4990584;28;20416;-79
2023/10/17 06:41:44;;;;;;;18.52;3.20;;;;;;;;;;5007501;28;20881;-78
2023/10/17 06:44:15;;;;;;;19.65;3.40;;;;;;;;;;4996226;28;20893;-78
2023/10/17 06:46:48;;;;;;;18.52;2.85;;;;;;;;;;5011369;28;20504;-77
2023/10/17 06:49:46;;;;;;;17.55;3.80;;;;;;;;;;5011666;28;20427;-77
2023/10/17 06:52:19;;;;;;;16.83;2.85;;;;;;;;;;5008511;28;20810;-77
2023/10/17 06:54:52;;;;;;;18.60;3.40;;;;;;;;;;5013961;28;21179;-79
2023/10/17 06:57:19;;;;;;;16.83;2.95;;;;;;;;;;4977626;28;21214;-79
2023/10/17 06:59:46;;;;;;;18.05;3.00;;;;;;;;;;5009947;28;20421;-78
2023/10/17 07:02:18;;;;;;;16.45;3.15;;;;;;;;;;4994698;28;20436;-77
2023/10/17 07:04:50;;;;;;;18.87;3.17;;;;;;;;;;5013357;28;20815;-77
2023/10/17 07:07:22;;;;;;;23.10;2.80;;;;;;;;;;5000296;28;20404;-76
2023/10/17 07:10:16;;;;;;;21.38;2.80;;;;;;;;;;4994857;28;20420;-78
2023/10/17 07:12:41;;;;;;;17.10;2.80;;;;;;;;;;5011844;28;20496;-77
2023/10/17 07:15:20;;;;;;;16.80;2.97;;;;;;;;;;5013944;28;20419;-77
2023/10/17 07:23:19;;;;;;;18.42;2.60;;;;;;;;;;5012826;28;20436;-77
2023/10/17 07:25:49;;;;;;;19.10;2.60;;;;;;;;;;5009706;28;20967;-79
2023/10/17 07:28:16;;;;;;;16.65;2.70;;;;;;;;;;5012036;28;20407;-80
2023/10/17 07:30:57;;;;;;;18.10;3.00;;;;;;;;;;4994518;28;20764;-79
2023/10/17 07:33:25;;;;;;;17.10;2.42;;;;;;;;;;5012792;28;20409;-77
2023/10/17 07:35:56;;;;;;;18.83;3.78;;;;;;;;;;5011065;28;20892;-77
2023/10/17 07:38:30;;;;;;;16.00;2.42;;;;;;;;;;5011771;28;20440;-79
2023/10/17 07:41:09;;;;;;;16.70;2.70;;;;;;;;;;4994142;28;20464;-80
2023/10/17 07:43:35;;;;;;;17.00;2.70;;;;;;;;;;5011240;28;20490;-80
2023/10/17 07:46:14;;;;;;;16.60;2.50;;;;;;;;;;5012170;28;20498;-80
2023/10/17 07:48:48;;;;;;;20.70;2.20;;;;;;;;;;4984971;28;20482;-79
2023/10/17 07:51:15;;;;;;;16.60;2.67;;;;;;;;;;4990705;28;20408;-78
2023/10/17 07:53:46;;;;;;;16.42;2.30;;;;;;;;;;4993462;28;20420;-77
2023/10/17 07:56:23;;;;;;;16.40;2.40;;;;;;;;;;5010273;28;20412;-78
2023/10/17 07:58:56;;;;;;;19.50;2.40;;;;;;;;;;4993819;28;21008;-78
2023/10/17 08:01:31;;;;;;;16.50;2.60;;;;;;;;;;5009432;28;20486;-77
2023/10/17 08:04:12;;;;;;;17.00;2.00;;;;;;;;;;5011284;28;20409;-77
2023/10/17 08:06:39;;;;;;;18.10;2.20;;;;;;;;;;4991890;28;20416;-78
2023/10/17 08:09:23;;;;;;;17.15;2.20;;;;;;;;;;4996801;28;20410;-76
2023/10/17 08:11:53;;;;;;;16.45;2.30;;;;;;;;;;5007787;28;20455;-78
2023/10/17 08:14:34;;;;;;;15.70;2.10;;;;;;;;;;4992808;28;20423;-76
2023/10/17 08:17:01;;;;;;;15.35;1.88;;;;;;;;;;4987533;28;20421;-77
2023/10/17 08:19:36;;;;;;;15.95;2.17;;;;;;;;;;4977916;28;20551;-77
2023/10/17 08:24:34;;;;;;;15.65;2.25;;;;;;;;;;5010248;28;20414;-79
2023/10/17 08:27:13;;;;;;;16.20;3.00;;;;;;;;;;4999334;28;20417;-78
2023/10/17 08:29:43;;;;;;;18.40;2.20;;;;;;;;;;5011494;28;20421;-77
2023/10/17 08:34:48;;;;;;;16.75;2.65;;;;;;;;;;5011693;28;20487;-77
2023/10/17 08:37:19;;;;;;;17.88;3.03;;;;;;;;;;5009199;28;20823;-78
2023/10/17 08:42:14;;;;;;;17.20;2.35;;;;;;;;;;5010462;28;20923;-77
2023/10/17 08:44:42;;;;;;;15.93;2.25;;;;;;;;;;4993370;28;20552;-78
2023/10/17 08:47:16;;;;;;;16.67;2.37;;;;;;;;;;5010543;28;20923;-79
2023/10/17 08:49:44;;;;;;;19.65;2.35;;;;;;;;;;5007537;28;20789;-77
2023/10/17 08:52:18;;;;;;;17.30;2.30;;;;;;;;;;4992532;28;20411;-76
2023/10/17 08:54:47;;;;;;;16.45;2.30;;;;;;;;;;4995221;28;20407;-79
2023/10/17 08:57:15;;;;;;;20.10;2.30;;;;;;;;;;4975556;28;20405;-77
2023/10/17 09:02:20;;;;;;;16.00;1.90;;;;;;;;;;5009705;28;20428;-79
2023/10/17 09:04:49;;;;;;;17.57;2.30;;;;;;;;;;5010572;28;20453;-76
2023/10/17 09:07:22;;;;;;;15.25;1.90;;;;;;;;;;5009289;28;21100;-79
2023/10/17 09:09:54;;;;;;;15.70;1.70;;;;;;;;;;5009310;28;20405;-77
2023/10/17 09:12:24;;;;;;;15.80;1.90;;;;;;;;;;5009213;28;20415;-79
2023/10/17 09:14:56;;;;;;;17.52;2.20;;;;;;;;;;5014195;28;20823;-77
2023/10/17 09:19:52;;;;;;;15.95;2.45;;;;;;;;;;4997025;28;20474;-80
2023/10/17 09:22:34;;;;;;;15.98;2.38;;;;;;;;;;4990682;28;20440;-78
2023/10/17 09:25:12;;;;;;;15.57;2.20;;;;;;;;;;5006442;28;20496;-79
2023/10/17 09:27:40;;;;;;;15.10;1.88;;;;;;;;;;4991336;28;20455;-78
2023/10/17 09:30:10;;;;;;;15.00;1.90;;;;;;;;;;5009870;28;20409;-79
2023/10/17 09:32:37;;;;;;;14.90;1.90;;;;;;;;;;5009848;28;20922;-76
2023/10/17 09:35:10;;;;;;;15.35;1.70;;;;;;;;;;5010231;28;20419;-77
2023/10/17 09:37:37;;;;;;;15.50;1.88;;;;;;;;;;5008422;28;20878;-78
2023/10/17 09:40:11;;;;;;;16.40;2.00;;;;;;;;;;5008335;28;20422;-77
2023/10/17 09:42:40;;;;;;;16.35;2.28;;;;;;;;;;4991501;28;20904;-77
2023/10/17 09:45:09;;;;;;;15.73;2.00;;;;;;;;;;4981535;28;20412;-78
2023/10/17 09:47:58;;;;;;;17.13;2.00;;;;;;;;;;5009095;28;20470;-79
2023/10/17 09:50:28;;;;;;;15.15;1.70;;;;;;;;;;4992065;28;20409;-77
2023/10/17 09:52:57;;;;;;;15.90;2.00;;;;;;;;;;4992313;28;20470;-76
2023/10/17 09:55:24;;;;;;;16.65;2.75;;;;;;;;;;5010048;28;20909;-76
2023/10/17 09:57:55;;;;;;;14.85;1.70;;;;;;;;;;5007177;28;20761;-79
2023/10/17 10:00:27;;;;;;;16.30;1.70;;;;;;;;;;4998240;28;20422;-77
2023/10/17 10:02:54;;;;;;;15.75;2.08;;;;;;;;;;5010455;28;20420;-76
2023/10/17 10:05:38;;;;;;;15.10;1.90;;;;;;;;;;5011178;28;20408;-76
2023/10/17 10:08:26;;;;;;;15.60;1.90;;;;;;;;;;5008485;28;20503;-77
2023/10/17 10:10:53;;;;;;;15.50;2.08;;;;;;;;;;5007822;28;20432;-77
2023/10/17 10:13:21;;;;;;;16.10;2.30;;;;;;;;;;5009644;28;20928;-78
2023/10/17 10:15:51;;;;;;;15.00;1.88;;;;;;;;;;5007235;28;20503;-77
2023/10/17 10:18:46;;;;;;;18.35;2.00;;;;;;;;;;4981462;28;20422;-78
2023/10/17 10:21:13;;;;;;;16.20;1.93;;;;;;;;;;5008616;28;20421;-79
2023/10/17 10:23:41;;;;;;;16.25;1.83;;;;;;;;;;4991778;28;20495;-79
2023/10/17 10:26:14;;;;;;;15.10;1.80;;;;;;;;;;5010708;28;20697;-78
2023/10/17 10:28:42;;;;;;;15.50;2.00;;;;;;;;;;4991913;28;20412;-78
2023/10/17 10:31:29;;;;;;;15.90;1.90;;;;;;;;;;4991978;28;20441;-78
2023/10/17 10:33:58;;;;;;;14.95;1.77;;;;;;;;;;5007202;28;20413;-78
2023/10/17 10:36:25;;;;;;;16.20;2.00;;;;;;;;;;4989633;28;20772;-76
2023/10/17 10:38:54;;;;;;;14.50;1.40;;;;;;;;;;4991180;28;20439;-78
2023/10/17 10:41:22;;;;;;;15.60;2.63;;;;;;;;;;4994140;28;20415;-78
2023/10/17 10:43:57;;;;;;;14.77;1.55;;;;;;;;;;5009345;28;20446;-76
2023/10/17 10:46:23;;;;;;;16.90;1.90;;;;;;;;;;5005018;28;20408;-78
2023/10/17 10:48:51;;;;;;;15.48;1.70;;;;;;;;;;4988842;28;20935;-78
2023/10/17 10:51:18;;;;;;;15.57;1.70;;;;;;;;;;4998791;28;20420;-78
2023/10/17 10:53:49;;;;;;;14.95;1.60;;;;;;;;;;4997880;28;20424;-78
2023/10/17 10:56:20;;;;;;;15.00;1.80;;;;;;;;;;4997912;28;20822;-78
2023/10/17 10:58:47;;;;;;;15.52;1.70;;;;;;;;;;5008510;28;20416;-78
2023/10/17 11:01:16;;;;;;;14.63;1.50;;;;;;;;;;5006413;28;21664;-78
2023/10/17 11:03:44;;;;;;;15.13;1.65;;;;;;;;;;4978758;28;20435;-76
2023/10/17 11:06:11;;;;;;;15.00;1.60;;;;;;;;;;5009659;28;20427;-76
2023/10/17 11:08:39;;;;;;;14.70;1.50;;;;;;;;;;5008666;28;20774;-76
2023/10/17 11:11:05;;;;;;;15.40;1.60;;;;;;;;;;4990738;28;20452;-77
2023/10/17 11:13:34;;;;;;;15.27;1.60;;;;;;;;;;5008686;28;20878;-78
2023/10/17 11:16:00;;;;;;;15.90;1.80;;;;;;;;;;4991691;28;20471;-77
2023/10/17 11:18:31;;;;;;;14.95;1.70;;;;;;;;;;5008211;28;20779;-79
2023/10/17 11:20:58;;;;;;;15.20;2.15;;;;;;;;;;5008960;28;20408;-77
2023/10/17 11:23:26;;;;;;;14.90;1.50;;;;;;;;;;4995814;28;20564;-76
2023/10/17 11:25:53;;;;;;;13.95;1.30;;;;;;;;;;4993434;28;20425;-76
2023/10/17 11:28:20;;;;;;;14.18;1.38;;;;;;;;;;5007736;28;21119;-77
2023/10/17 11:30:48;;;;;;;15.07;1.50;;;;;;;;;;5011964;28;20423;-75
2023/10/17 11:33:18;;;;;;;14.85;1.40;;;;;;;;;;5001676;28;20400;-76
2023/10/17 11:35:47;;;;;;;15.20;1.50;;;;;;;;;;5014334;28;20420;-80
2023/10/17 11:38:35;;;;;;;15.60;1.40;;;;;;;;;;5011759;28;20423;-77
2023/10/17 11:41:05;;;;;;;14.75;1.30;;;;;;;;;;5011934;28;20499;-76
2023/10/17 11:43:34;;;;;;;14.52;1.45;;;;;;;;;;5010123;28;20417;-78
2023/10/17 11:46:02;;;;;;;15.10;2.00;;;;;;;;;;5012612;28;20409;-80
2023/10/17 11:48:31;;;;;;;14.50;1.60;;;;;;;;;;4993053;28;20519;-78
2023/10/17 11:51:17;;;;;;;15.10;1.90;;;;;;;;;;4994119;28;20424;-75
2023/10/17 11:54:03;;;;;;;15.00;1.40;;;;;;;;;;4995628;28;20405;-77
2023/10/17 11:56:40;;;;;;;14.50;1.60;;;;;;;;;;4994445;28;20409;-77
2023/10/17 11:59:08;;;;;;;17.70;1.50;;;;;;;;;;4998417;28;20429;-78
2023/10/17 12:01:34;;;;;;;15.90;1.70;;;;;;;;;;4980758;28;20429;-77
2023/10/17 12:04:06;;;;;;;14.30;1.30;;;;;;;;;;5012816;28;20428;-75
2023/10/17 12:06:34;;;;;;;14.20;1.33;;;;;;;;;;5011403;28;20964;-77
2023/10/17 12:09:17;;;;;;;15.23;1.40;;;;;;;;;;4991999;28;20432;-78
2023/10/17 12:11:46;;;;;;;16.40;1.93;;;;;;;;;;5013716;28;20511;-77
2023/10/17 12:14:19;;;;;;;15.00;1.50;;;;;;;;;;4994702;28;20413;-77
2023/10/17 12:16:49;;;;;;;15.13;1.70;;;;;;;;;;4994223;28;20443;-77
2023/10/17 12:19:17;;;;;;;14.87;1.50;;;;;;;;;;5011136;28;20459;-75
2023/10/17 12:21:48;;;;;;;15.38;1.70;;;;;;;;;;5010394;28;20411;-78
2023/10/17 12:24:19;;;;;;;15.40;1.60;;;;;;;;;;4994161;28;20405;-78
2023/10/17 12:26:46;;;;;;;14.73;1.50;;;;;;;;;;5000846;28;20448;-76
2023/10/17 12:29:13;;;;;;;16.67;1.88;;;;;;;;;;5010842;28;21077;-76
2023/10/17 12:31:40;;;;;;;14.90;1.40;;;;;;;;;;5011045;28;20845;-76
2023/10/17 12:34:07;;;;;;;14.00;1.40;;;;;;;;;;5012008;28;20408;-77
2023/10/17 12:36:35;;;;;;;14.73;1.50;;;;;;;;;;4993578;28;20416;-78
2023/10/17 12:39:03;;;;;;;14.57;1.45;;;;;;;;;;5011733;28;20423;-76
2023/10/17 12:41:30;;;;;;;15.30;1.50;;;;;;;;;;5010422;28;20404;-77
2023/10/17 12:43:56;;;;;;;14.50;1.63;;;;;;;;;;4991121;28;20809;-77
2023/10/17 12:46:23;;;;;;;14.80;1.85;;;;;;;;;;5014742;28;20475;-77
2023/10/17 12:48:50;;;;;;;16.45;2.15;;;;;;;;;;5012492;28;20507;-77
2023/10/17 12:51:16;;;;;;;14.52;1.50;;;;;;;;;;4995802;28;20479;-78
2023/10/17 12:53:44;;;;;;;14.50;1.30;;;;;;;;;;5000097;28;20466;-76
2023/10/17 12:56:12;;;;;;;14.20;1.40;;;;;;;;;;4993219;28;20409;-77
2023/10/17 12:58:41;;;;;;;14.40;1.40;;;;;;;;;;5011081;28;20409;-78
2023/10/17 13:01:13;;;;;;;15.00;1.55;;;;;;;;;;5009065;28;21178;-79
2023/10/17 13:03:40;;;;;;;14.60;1.42;;;;;;;;;;4982476;28;20665;-78
2023/10/17 13:06:09;;;;;;;14.80;1.75;;;;;;;;;;4992267;28;20440;-76
2023/10/17 13:08:35;;;;;;;15.63;1.50;;;;;;;;;;4992854;28;20463;-79
2023/10/17 13:11:06;;;;;;;14.40;1.50;;;;;;;;;;4983087;28;20419;-80
2023/10/17 13:13:34;;;;;;;14.88;1.60;;;;;;;;;;5009145;28;20412;-77
2023/10/17 13:16:05;;;;;;;15.23;1.45;;;;;;;;;;4995839;28;20417;-77
2023/10/17 13:18:36;;;;;;;16.95;1.70;;;;;;;;;;5010572;28;20765;-77
2023/10/17 13:21:12;;;;;;;14.40;1.40;;;;;;;;;;5009739;28;20500;-78
2023/10/17 13:23:39;;;;;;;14.98;1.70;;;;;;;;;;4991782;28;20465;-79
2023/10/17 13:26:08;;;;;;;14.32;1.20;;;;;;;;;;4994964;28;20463;-79
2023/10/17 13:28:36;;;;;;;14.15;1.60;;;;;;;;;;5009137;28;20499;-77
2023/10/17 13:31:07;;;;;;;14.60;1.40;;;;;;;;;;4992113;28;20752;-77
2023/10/17 13:33:34;;;;;;;14.80;1.50;;;;;;;;;;4991072;28;20412;-76
2023/10/17 13:36:00;;;;;;;14.60;1.50;;;;;;;;;;5012094;28;20881;-77
2023/10/17 13:38:27;;;;;;;14.90;1.38;;;;;;;;;;5008848;28;20412;-76
2023/10/17 13:41:01;;;;;;;16.13;1.90;;;;;;;;;;4993618;28;20946;-77
2023/10/17 13:43:27;;;;;;;14.50;1.60;;;;;;;;;;4974661;28;20825;-76
2023/10/17 13:45:55;;;;;;;15.30;1.55;;;;;;;;;;5009708;28;20852;-76
2023/10/17 13:48:22;;;;;;;14.77;1.60;;;;;;;;;;5007215;28;20404;-77
2023/10/17 13:50:49;;;;;;;14.32;1.45;;;;;;;;;;4998363;28;20483;-77
2023/10/17 13:53:20;;;;;;;14.50;1.20;;;;;;;;;;5009058;28;20417;-77
2023/10/17 13:55:48;;;;;;;15.10;1.30;;;;;;;;;;4980447;28;20444;-76
2023/10/17 13:58:16;;;;;;;14.88;1.50;;;;;;;;;;5009656;28;20430;-76
2023/10/17 14:00:54;;;;;;;14.40;1.30;;;;;;;;;;5009313;28;20627;-76
2023/10/17 14:03:22;;;;;;;14.10;1.30;;;;;;;;;;5006429;28;20429;-76
2023/10/17 14:05:49;;;;;;;14.35;1.30;;;;;;;;;;4987117;28;20451;-76
2023/10/17 14:08:16;;;;;;;14.40;1.63;;;;;;;;;;5009836;28;20499;-76
2023/10/17 14:10:43;;;;;;;14.10;1.10;;;;;;;;;;5009231;28;20479;-77
2023/10/17 14:13:12;;;;;;;14.00;1.30;;;;;;;;;;5010083;28;20458;-76
2023/10/17 14:15:38;;;;;;;14.02;1.20;;;;;;;;;;5010532;28;20520;-77
2023/10/17 14:18:14;;;;;;;15.23;1.55;;;;;;;;;;4994253;28;20413;-78
2023/10/17 14:23:33;;;;;;;14.77;1.40;;;;;;;;;;5006522;28;20424;-76
2023/10/17 14:26:09;;;;;;;15.67;1.50;;;;;;;;;;5005581;28;20439;-77
2023/10/17 14:28:37;;;;;;;15.90;1.90;;;;;;;;;;4996772;28;20755;-76
2023/10/17 14:31:04;;;;;;;14.60;1.60;;;;;;;;;;4991388;28;20423;-77
2023/10/17 14:33:34;;;;;;;15.35;1.60;;;;;;;;;;4992652;28;21018;-77
2023/10/17 14:36:03;;;;;;;14.70;1.60;;;;;;;;;;5008104;28;20793;-77
2023/10/17 14:38:32;;;;;;;17.50;1.80;;;;;;;;;;5009535;28;20406;-78
2023/10/17 14:40:58;;;;;;;15.07;1.60;;;;;;;;;;5006631;28;20507;-77
2023/10/17 14:43:25;;;;;;;14.82;1.60;;;;;;;;;;5007385;28;20473;-77
2023/10/17 14:45:53;;;;;;;14.77;1.50;;;;;;;;;;4989926;28;20439;-76
2023/10/17 14:48:20;;;;;;;15.15;2.20;;;;;;;;;;5011176;28;20464;-77
2023/10/17 14:50:46;;;;;;;15.13;1.60;;;;;;;;;;5011127;28;20892;-77
2023/10/17 14:53:19;;;;;;;15.68;1.90;;;;;;;;;;4981294;28;20417;-77
2023/10/17 14:55:56;;;;;;;14.90;1.40;;;;;;;;;;4995500;28;20895;-76
2023/10/17 14:58:22;;;;;;;14.50;1.30;;;;;;;;;;4991236;28;20920;-77
2023/10/17 15:00:49;;;;;;;14.60;1.30;;;;;;;;;;5007942;28;20408;-77
2023/10/17 15:03:15;;;;;;;14.43;1.40;;;;;;;;;;5008098;28;20519;-77
2023/10/17 15:05:42;;;;;;;15.35;1.67;;;;;;;;;;5011818;28;20430;-76
2023/10/17 15:08:11;;;;;;;16.40;1.42;;;;;;;;;;5013726;28;20889;-76
2023/10/17 15:10:39;;;;;;;15.17;1.47;;;;;;;;;;5011480;28;20459;-76
2023/10/17 15:13:08;;;;;;;15.02;1.70;;;;;;;;;;4994407;28;20415;-78
2023/10/17 15:15:36;;;;;;;16.47;2.17;;;;;;;;;;5012598;28;20440;-76
2023/10/17 15:18:04;;;;;;;16.33;2.40;;;;;;;;;;4994594;28;20416;-78
2023/10/17 15:20:31;;;;;;;14.65;1.48;;;;;;;;;;5011189;28;20416;-78
2023/10/17 15:22:58;;;;;;;16.05;1.90;;;;;;;;;;4978548;28;20511;-76
2023/10/17 15:25:24;;;;;;;15.15;1.90;;;;;;;;;;4993953;28;20426;-77
2023/10/17 15:27:54;;;;;;;14.50;1.50;;;;;;;;;;5002927;28;20514;-77
2023/10/17 15:30:22;;;;;;;16.00;1.85;;;;;;;;;;5012257;28;20409;-77
2023/10/17 15:33:02;;;;;;;16.47;1.97;;;;;;;;;;5009011;28;20415;-76
2023/10/17 15:35:31;;;;;;;15.85;2.00;;;;;;;;;;5012416;28;20877;-76
2023/10/17 15:37:57;;;;;;;15.10;1.70;;;;;;;;;;4994445;28;20958;-77
2023/10/17 15:40:24;;;;;;;16.77;2.57;;;;;;;;;;5010573;28;20495;-76
2023/10/17 15:42:52;;;;;;;14.52;1.70;;;;;;;;;;4994752;28;20421;-76
2023/10/17 15:45:19;;;;;;;14.68;1.70;;;;;;;;;;5011601;28;20413;-76
2023/10/17 15:47:48;;;;;;;14.63;1.50;;;;;;;;;;5012783;28;20432;-77
2023/10/17 15:50:17;;;;;;;15.82;1.80;;;;;;;;;;5010761;28;20405;-76
2023/10/17 15:52:44;;;;;;;16.30;1.83;;;;;;;;;;5011959;28;20451;-76
2023/10/17 15:55:12;;;;;;;14.25;1.60;;;;;;;;;;4994746;28;20409;-75
2023/10/17 15:57:39;;;;;;;15.30;1.83;;;;;;;;;;5008364;28;20420;-76
2023/10/17 16:00:15;;;;;;;15.10;1.77;;;;;;;;;;5013921;28;20416;-77
2023/10/17 16:02:44;;;;;;;15.30;2.00;;;;;;;;;;5010863;28;20471;-76
2023/10/17 16:05:11;;;;;;;18.10;2.00;;;;;;;;;;5001032;28;20436;-77
2023/10/17 16:07:38;;;;;;;15.90;1.90;;;;;;;;;;4993686;28;21050;-76
2023/10/17 16:10:05;;;;;;;15.73;1.85;;;;;;;;;;5007054;28;20491;-74
2023/10/17 16:12:32;;;;;;;15.52;1.98;;;;;;;;;;5011058;28;20412;-77
2023/10/17 16:15:03;;;;;;;15.15;1.88;;;;;;;;;;5011043;28;20401;-76
2023/10/17 16:17:31;;;;;;;15.93;1.67;;;;;;;;;;5012100;28;20888;-77
2023/10/17 16:19:57;;;;;;;15.70;2.40;;;;;;;;;;4993454;28;20412;-75
2023/10/17 16:22:24;;;;;;;15.57;1.75;;;;;;;;;;5001925;28;20428;-77
2023/10/17 16:24:50;;;;;;;16.70;2.00;;;;;;;;;;5012922;28;20825;-76
2023/10/17 16:27:17;;;;;;;14.75;1.63;;;;;;;;;;5008837;28;20416;-76
2023/10/17 16:29:44;;;;;;;15.20;1.90;;;;;;;;;;5010407;28;20420;-76
2023/10/17 16:32:11;;;;;;;16.05;1.90;;;;;;;;;;5011258;28;21007;-75
2023/10/17 16:34:41;;;;;;;17.70;1.80;;;;;;;;;;5012306;28;20504;-77
2023/10/17 16:37:08;;;;;;;15.15;2.22;;;;;;;;;;5012876;28;20417;-76
2023/10/17 16:39:34;;;;;;;16.48;2.20;;;;;;;;;;5011079;28;20421;-76
2023/10/17 16:42:01;;;;;;;16.40;2.00;;;;;;;;;;5007836;28;20746;-75
2023/10/17 16:44:27;;;;;;;16.55;2.08;;;;;;;;;;5011393;28;20508;-77
2023/10/17 16:46:55;;;;;;;17.98;2.88;;;;;;;;;;4992965;28;20515;-75
2023/10/17 16:49:21;;;;;;;17.05;2.30;;;;;;;;;;4992564;28;21832;-76
2023/10/17 16:51:50;;;;;;;18.90;3.67;;;;;;;;;;4992285;28;20881;-77
2023/10/17 16:54:16;;;;;;;19.25;2.97;;;;;;;;;;5015078;28;20880;-77
2023/10/17 16:56:43;;;;;;;19.75;4.20;;;;;;;;;;4981477;28;20408;-76
2023/10/17 16:59:11;;;;;;;21.40;5.10;;;;;;;;;;4992662;28;20412;-77